sensor_id;sensor_type;location;lat;lon;timestamp;pressure;altitude;pressure_sealevel;temperature;humidity
60820;BME280;46641;48.904;9.126;2023-08-21T00:04:39;99052.59;;;30.32;47.21
60820;BME280;46641;48.904;9.126;2023-08-21T00:09:29;99053.09;;;30.28;47.45
60820;BME280;46641;48.904;9.126;2023-08-21T00:14:19;99052.81;;;30.25;47.46
60820;BME280;46641;48.904;9.126;2023-08-21T00:19:09;99052.53;;;30.21;47.19
60820;BME280;46641;48.904;9.126;2023-08-21T00:24:00;99050.34;;;30.18;47.00
60820;BME280;46641;48.904;9.126;2023-08-21T00:28:50;99049.25;;;30.14;47.46
60820;BME280;46641;48.904;9.126;2023-08-21T00:33:40;99044.34;;;30.11;47.36
60820;BME280;46641;48.904;9.126;2023-08-21T00:38:31;99040.28;;;30.09;47.38
60820;BME280;46641;48.904;9.126;2023-08-21T00:43:21;99041.63;;;30.06;47.62
60820;BME280;46641;48.904;9.126;2023-08-21T00:48:13;99039.47;;;30.03;47.62
60820;BME280;46641;48.904;9.126;2023-08-21T00:53:04;99032.94;;;29.99;47.64
60820;BME280;46641;48.904;9.126;2023-08-21T00:57:54;99027.03;;;29.97;47.26
60820;BME280;46641;48.904;9.126;2023-08-21T01:02:45;99025.91;;;29.93;47.72
60820;BME280;46641;48.904;9.126;2023-08-21T01:07:40;99022.09;;;29.89;47.74
60820;BME280;46641;48.904;9.126;2023-08-21T01:13:09;99023.69;;;29.85;47.45
60820;BME280;46641;48.904;9.126;2023-08-21T01:18:02;99035.81;;;29.82;47.71
60820;BME280;46641;48.904;9.126;2023-08-21T01:22:53;99035.53;;;29.78;47.73
60820;BME280;46641;48.904;9.126;2023-08-21T01:27:48;99029.56;;;29.76;47.69
60820;BME280;46641;48.904;9.126;2023-08-21T01:32:45;99032.78;;;29.73;47.39
60820;BME280;46641;48.904;9.126;2023-08-21T01:37:37;99041.41;;;29.70;47.53
60820;BME280;46641;48.904;9.126;2023-08-21T01:42:28;99033.84;;;29.67;47.60
60820;BME280;46641;48.904;9.126;2023-08-21T01:47:18;99031.41;;;29.66;47.61
60820;BME280;46641;48.904;9.126;2023-08-21T01:52:08;99029.50;;;29.61;47.93
60820;BME280;46641;48.904;9.126;2023-08-21T01:56:58;99023.78;;;29.57;47.52
60820;BME280;46641;48.904;9.126;2023-08-21T02:01:49;99021.31;;;29.56;47.45
60820;BME280;46641;48.904;9.126;2023-08-21T02:06:39;99022.66;;;29.53;47.70
60820;BME280;46641;48.904;9.126;2023-08-21T02:11:29;99022.34;;;29.50;48.09
60820;BME280;46641;48.904;9.126;2023-08-21T02:16:20;99028.25;;;29.47;47.54
60820;BME280;46641;48.904;9.126;2023-08-21T02:21:12;99028.78;;;29.44;47.56
60820;BME280;46641;48.904;9.126;2023-08-21T02:26:03;99026.59;;;29.41;47.61
60820;BME280;46641;48.904;9.126;2023-08-21T02:30:53;99040.59;;;29.38;47.62
60820;BME280;46641;48.904;9.126;2023-08-21T02:35:43;99038.69;;;29.33;47.79
60820;BME280;46641;48.904;9.126;2023-08-21T02:40:33;99040.00;;;29.30;47.82
60820;BME280;46641;48.904;9.126;2023-08-21T02:45:24;99042.16;;;29.28;48.15
60820;BME280;46641;48.904;9.126;2023-08-21T02:50:14;99044.28;;;29.26;48.22
60820;BME280;46641;48.904;9.126;2023-08-21T02:55:05;99039.91;;;29.20;47.92
60820;BME280;46641;48.904;9.126;2023-08-21T02:59:56;99041.22;;;29.18;48.36
60820;BME280;46641;48.904;9.126;2023-08-21T03:04:47;99029.06;;;29.15;47.93
60820;BME280;46641;48.904;9.126;2023-08-21T03:09:40;99029.03;;;29.10;48.18
60820;BME280;46641;48.904;9.126;2023-08-21T03:14:30;99031.97;;;29.08;48.12
60820;BME280;46641;48.904;9.126;2023-08-21T03:19:20;99035.19;;;29.05;48.30
60820;BME280;46641;48.904;9.126;2023-08-21T03:24:11;99041.91;;;29.03;48.67
60820;BME280;46641;48.904;9.126;2023-08-21T03:29:01;99037.25;;;28.98;48.08
60820;BME280;46641;48.904;9.126;2023-08-21T03:33:52;99043.97;;;28.96;48.02
60820;BME280;46641;48.904;9.126;2023-08-21T03:38:42;99046.34;;;28.92;48.67
60820;BME280;46641;48.904;9.126;2023-08-21T03:43:33;99041.72;;;28.87;48.15
60820;BME280;46641;48.904;9.126;2023-08-21T03:48:23;99040.63;;;28.83;48.56
60820;BME280;46641;48.904;9.126;2023-08-21T03:53:13;99045.69;;;28.80;48.79
60820;BME280;46641;48.904;9.126;2023-08-21T03:58:04;99056.97;;;28.77;48.64
60820;BME280;46641;48.904;9.126;2023-08-21T04:02:54;99064.75;;;28.73;48.53
60820;BME280;46641;48.904;9.126;2023-08-21T04:07:44;99067.13;;;28.70;48.94
60820;BME280;46641;48.904;9.126;2023-08-21T04:12:34;99066.81;;;28.66;48.66
60820;BME280;46641;48.904;9.126;2023-08-21T04:17:25;99083.47;;;28.63;48.86
60820;BME280;46641;48.904;9.126;2023-08-21T04:22:15;99077.78;;;28.59;48.64
60820;BME280;46641;48.904;9.126;2023-08-21T04:27:05;99074.78;;;28.56;48.69
60820;BME280;46641;48.904;9.126;2023-08-21T04:31:55;99083.34;;;28.53;48.97
60820;BME280;46641;48.904;9.126;2023-08-21T04:36:46;99085.75;;;28.49;49.18
60820;BME280;46641;48.904;9.126;2023-08-21T04:41:36;99078.16;;;28.46;48.70
60820;BME280;46641;48.904;9.126;2023-08-21T04:46:26;99084.03;;;28.43;49.27
60820;BME280;46641;48.904;9.126;2023-08-21T04:51:17;99082.88;;;28.39;49.29
60820;BME280;46641;48.904;9.126;2023-08-21T04:56:07;99080.69;;;28.36;48.86
60820;BME280;46641;48.904;9.126;2023-08-21T05:00:57;99083.88;;;28.33;49.27
60820;BME280;46641;48.904;9.126;2023-08-21T05:05:53;99081.69;;;28.30;49.43
60820;BME280;46641;48.904;9.126;2023-08-21T05:10:44;99087.56;;;28.27;49.05
60820;BME280;46641;48.904;9.126;2023-08-21T05:15:34;99094.25;;;28.24;48.96
60820;BME280;46641;48.904;9.126;2023-08-21T05:20:24;99085.06;;;28.20;48.97
60820;BME280;46641;48.904;9.126;2023-08-21T05:25:15;99090.13;;;28.16;49.02
60820;BME280;46641;48.904;9.126;2023-08-21T05:30:06;99090.38;;;28.15;49.61
60820;BME280;46641;48.904;9.126;2023-08-21T05:34:56;99099.75;;;28.12;49.45
60820;BME280;46641;48.904;9.126;2023-08-21T05:39:46;99104.34;;;28.12;49.36
60820;BME280;46641;48.904;9.126;2023-08-21T05:44:36;99104.84;;;28.09;49.07
60820;BME280;46641;48.904;9.126;2023-08-21T05:49:27;99109.91;;;28.05;49.16
60820;BME280;46641;48.904;9.126;2023-08-21T05:54:17;99103.13;;;28.03;49.60
60820;BME280;46641;48.904;9.126;2023-08-21T05:59:09;99111.19;;;28.03;49.48
60820;BME280;46641;48.904;9.126;2023-08-21T06:04:00;99114.97;;;28.02;49.50
60820;BME280;46641;48.904;9.126;2023-08-21T06:08:50;99118.69;;;28.01;49.53
60820;BME280;46641;48.904;9.126;2023-08-21T06:13:40;99117.06;;;28.00;49.49
60820;BME280;46641;48.904;9.126;2023-08-21T06:18:30;99115.44;;;27.99;49.40
60820;BME280;46641;48.904;9.126;2023-08-21T06:23:21;99118.38;;;27.97;49.48
60820;BME280;46641;48.904;9.126;2023-08-21T06:28:11;99118.94;;;27.99;49.19
60820;BME280;46641;48.904;9.126;2023-08-21T06:33:01;99124.56;;;27.98;48.99
60820;BME280;46641;48.904;9.126;2023-08-21T06:37:52;99133.72;;;27.96;49.49
60820;BME280;46641;48.904;9.126;2023-08-21T06:42:44;99134.53;;;27.97;49.09
60820;BME280;46641;48.904;9.126;2023-08-21T06:47:34;99138.03;;;27.98;49.43
60820;BME280;46641;48.904;9.126;2023-08-21T06:52:24;99126.44;;;27.97;49.10
60820;BME280;46641;48.904;9.126;2023-08-21T06:57:15;99135.31;;;27.98;49.04
60820;BME280;46641;48.904;9.126;2023-08-21T07:02:05;99136.13;;;27.98;49.43
60820;BME280;46641;48.904;9.126;2023-08-21T07:06:55;99135.09;;;27.99;48.95
60820;BME280;46641;48.904;9.126;2023-08-21T07:11:46;99132.97;;;28.01;49.08
60820;BME280;46641;48.904;9.126;2023-08-21T07:16:36;99137.53;;;28.01;48.99
60820;BME280;46641;48.904;9.126;2023-08-21T07:21:26;99138.09;;;28.03;48.96
60820;BME280;46641;48.904;9.126;2023-08-21T07:26:16;99143.22;;;28.04;48.90
60820;BME280;46641;48.904;9.126;2023-08-21T07:31:06;99143.00;;;28.06;48.63
60820;BME280;46641;48.904;9.126;2023-08-21T07:36:01;99148.94;;;28.08;49.08
60820;BME280;46641;48.904;9.126;2023-08-21T07:41:02;99147.09;;;28.08;49.53
60820;BME280;46641;48.904;9.126;2023-08-21T07:45:52;99147.91;;;28.09;49.23
60820;BME280;46641;48.904;9.126;2023-08-21T07:50:50;99152.47;;;28.08;48.96
60820;BME280;46641;48.904;9.126;2023-08-21T07:55:41;99160.28;;;28.10;49.02
60820;BME280;46641;48.904;9.126;2023-08-21T08:00:31;99158.16;;;28.12;49.08
60820;BME280;46641;48.904;9.126;2023-08-21T08:05:22;99159.78;;;28.13;48.97
60820;BME280;46641;48.904;9.126;2023-08-21T08:10:12;99161.41;;;28.14;48.90
60820;BME280;46641;48.904;9.126;2023-08-21T08:15:02;99163.63;;;28.17;49.38
60820;BME280;46641;48.904;9.126;2023-08-21T08:19:52;99156.13;;;28.19;49.12
60820;BME280;46641;48.904;9.126;2023-08-21T08:24:43;99159.13;;;28.23;49.29
60820;BME280;46641;48.904;9.126;2023-08-21T08:29:33;99154.06;;;28.26;49.39
60820;BME280;46641;48.904;9.126;2023-08-21T08:34:23;99151.94;;;28.28;48.93
60820;BME280;46641;48.904;9.126;2023-08-21T08:39:13;99148.19;;;28.29;49.33
60820;BME280;46641;48.904;9.126;2023-08-21T08:44:04;99150.13;;;28.34;48.97
60820;BME280;46641;48.904;9.126;2023-08-21T08:48:56;99148.34;;;28.39;49.39
60820;BME280;46641;48.904;9.126;2023-08-21T08:53:47;99136.03;;;28.43;49.10
60820;BME280;46641;48.904;9.126;2023-08-21T08:58:37;99149.34;;;28.50;49.20
60820;BME280;46641;48.904;9.126;2023-08-21T09:03:28;99147.00;;;28.59;49.31
60820;BME280;46641;48.904;9.126;2023-08-21T09:08:19;99144.13;;;28.65;48.95
60820;BME280;46641;48.904;9.126;2023-08-21T09:13:15;99150.47;;;28.76;49.24
60820;BME280;46641;48.904;9.126;2023-08-21T09:18:09;99140.31;;;28.83;48.90
60820;BME280;46641;48.904;9.126;2023-08-21T09:22:59;99150.63;;;28.92;49.33
60820;BME280;46641;48.904;9.126;2023-08-21T09:27:51;99129.69;;;28.99;49.28
60820;BME280;46641;48.904;9.126;2023-08-21T09:32:52;99141.16;;;29.06;49.53
60820;BME280;46641;48.904;9.126;2023-08-21T09:37:47;99139.59;;;29.15;50.26
60820;BME280;46641;48.904;9.126;2023-08-21T09:42:39;99133.84;;;29.28;50.31
60820;BME280;46641;48.904;9.126;2023-08-21T09:47:29;99130.97;;;29.40;50.79
60820;BME280;46641;48.904;9.126;2023-08-21T09:52:20;99128.66;;;29.54;51.00
60820;BME280;46641;48.904;9.126;2023-08-21T09:57:11;99118.31;;;29.68;50.98
60820;BME280;46641;48.904;9.126;2023-08-21T10:02:04;99130.03;;;29.84;51.36
60820;BME280;46641;48.904;9.126;2023-08-21T10:06:56;99120.41;;;29.98;51.39
60820;BME280;46641;48.904;9.126;2023-08-21T10:11:48;99113.75;;;30.11;51.79
60820;BME280;46641;48.904;9.126;2023-08-21T10:16:38;99109.81;;;30.23;51.59
60820;BME280;46641;48.904;9.126;2023-08-21T10:21:34;99092.84;;;30.38;51.74
60820;BME280;46641;48.904;9.126;2023-08-21T10:26:25;99094.84;;;30.53;52.13
60820;BME280;46641;48.904;9.126;2023-08-21T10:31:36;99089.22;;;30.70;51.49
60820;BME280;46641;48.904;9.126;2023-08-21T10:42:03;99087.16;;;31.03;52.24
60820;BME280;46641;48.904;9.126;2023-08-21T10:46:53;99077.72;;;31.15;52.25
60820;BME280;46641;48.904;9.126;2023-08-21T10:51:44;99081.56;;;31.30;52.51
60820;BME280;46641;48.904;9.126;2023-08-21T10:56:34;99083.22;;;31.46;52.40
60820;BME280;46641;48.904;9.126;2023-08-21T11:01:24;99077.78;;;31.61;52.44
60820;BME280;46641;48.904;9.126;2023-08-21T11:06:18;99087.50;;;31.78;52.55
60820;BME280;46641;48.904;9.126;2023-08-21T11:11:10;99084.28;;;31.91;52.42
60820;BME280;46641;48.904;9.126;2023-08-21T11:16:02;99079.13;;;32.05;52.96
60820;BME280;46641;48.904;9.126;2023-08-21T11:21:03;99079.06;;;32.20;52.63
60820;BME280;46641;48.904;9.126;2023-08-21T11:25:53;99078.50;;;32.28;52.70
60820;BME280;46641;48.904;9.126;2023-08-21T11:30:43;99074.94;;;32.38;52.67
60820;BME280;46641;48.904;9.126;2023-08-21T11:35:34;99069.22;;;32.50;52.79
60820;BME280;46641;48.904;9.126;2023-08-21T11:40:24;99065.66;;;32.59;52.74
60820;BME280;46641;48.904;9.126;2023-08-21T11:45:15;99067.81;;;32.68;53.30
60820;BME280;46641;48.904;9.126;2023-08-21T11:50:07;99065.84;;;32.78;52.98
60820;BME280;46641;48.904;9.126;2023-08-21T11:54:58;99057.91;;;32.92;52.89
60820;BME280;46641;48.904;9.126;2023-08-21T11:59:53;99054.84;;;33.09;52.46
60820;BME280;46641;48.904;9.126;2023-08-21T12:04:43;99057.72;;;33.23;52.46
60820;BME280;46641;48.904;9.126;2023-08-21T12:09:34;99064.41;;;33.36;52.80
60820;BME280;46641;48.904;9.126;2023-08-21T12:14:24;99058.09;;;33.45;52.24
60820;BME280;46641;48.904;9.126;2023-08-21T12:19:14;99049.88;;;33.56;51.86
60820;BME280;46641;48.904;9.126;2023-08-21T12:24:05;99049.28;;;33.64;52.26
60820;BME280;46641;48.904;9.126;2023-08-21T12:28:56;99051.09;;;33.73;52.29
60820;BME280;46641;48.904;9.126;2023-08-21T12:33:46;99042.28;;;33.82;51.76
60820;BME280;46641;48.904;9.126;2023-08-21T12:38:37;99037.06;;;33.90;51.47
60820;BME280;46641;48.904;9.126;2023-08-21T12:43:27;99026.66;;;33.97;51.60
60820;BME280;46641;48.904;9.126;2023-08-21T12:48:17;99023.63;;;34.04;50.90
60820;BME280;46641;48.904;9.126;2023-08-21T12:53:07;99023.25;;;34.11;50.76
60820;BME280;46641;48.904;9.126;2023-08-21T12:57:58;99015.06;;;34.16;50.47
60820;BME280;46641;48.904;9.126;2023-08-21T13:02:48;99017.78;;;34.16;50.92
60820;BME280;46641;48.904;9.126;2023-08-21T13:07:39;99011.25;;;34.17;50.70
60820;BME280;46641;48.904;9.126;2023-08-21T13:12:29;99007.94;;;34.20;50.52
60820;BME280;46641;48.904;9.126;2023-08-21T13:17:19;99005.16;;;34.25;49.55
60820;BME280;46641;48.904;9.126;2023-08-21T13:22:09;99008.38;;;34.27;49.54
60820;BME280;46641;48.904;9.126;2023-08-21T13:27:00;99001.84;;;34.28;49.15
60820;BME280;46641;48.904;9.126;2023-08-21T13:31:50;98994.22;;;34.30;49.53
60820;BME280;46641;48.904;9.126;2023-08-21T13:36:40;98997.97;;;34.34;49.34
60820;BME280;46641;48.904;9.126;2023-08-21T13:41:30;98991.44;;;34.35;49.13
60820;BME280;46641;48.904;9.126;2023-08-21T13:46:21;98982.69;;;34.38;48.94
60820;BME280;46641;48.904;9.126;2023-08-21T13:51:11;98971.53;;;34.40;48.17
60820;BME280;46641;48.904;9.126;2023-08-21T13:56:01;98973.94;;;34.41;48.38
60820;BME280;46641;48.904;9.126;2023-08-21T14:00:51;98969.56;;;34.46;48.35
60820;BME280;46641;48.904;9.126;2023-08-21T14:05:42;98970.06;;;34.48;48.01
60820;BME280;46641;48.904;9.126;2023-08-21T14:10:32;98964.63;;;34.48;47.62
60820;BME280;46641;48.904;9.126;2023-08-21T14:15:23;98967.84;;;34.50;47.14
60820;BME280;46641;48.904;9.126;2023-08-21T14:20:13;98961.31;;;34.51;47.30
60820;BME280;46641;48.904;9.126;2023-08-21T14:25:04;98966.50;;;34.52;48.03
60820;BME280;46641;48.904;9.126;2023-08-21T14:29:55;98962.94;;;34.52;47.41
60820;BME280;46641;48.904;9.126;2023-08-21T14:34:46;98954.78;;;34.52;47.66
60820;BME280;46641;48.904;9.126;2023-08-21T14:39:37;98955.63;;;34.52;47.21
60820;BME280;46641;48.904;9.126;2023-08-21T14:44:27;98956.44;;;34.53;47.84
60820;BME280;46641;48.904;9.126;2023-08-21T14:49:17;98953.41;;;34.54;47.21
60820;BME280;46641;48.904;9.126;2023-08-21T14:54:07;98948.81;;;34.55;47.31
60820;BME280;46641;48.904;9.126;2023-08-21T14:58:58;98947.69;;;34.56;47.36
60820;BME280;46641;48.904;9.126;2023-08-21T15:03:48;98943.84;;;34.57;46.87
60820;BME280;46641;48.904;9.126;2023-08-21T15:08:38;98936.81;;;34.56;47.24
60820;BME280;46641;48.904;9.126;2023-08-21T15:13:31;98934.09;;;34.56;46.80
60820;BME280;46641;48.904;9.126;2023-08-21T15:18:22;98928.66;;;34.56;46.87
60820;BME280;46641;48.904;9.126;2023-08-21T15:23:12;98929.78;;;34.55;47.04
60820;BME280;46641;48.904;9.126;2023-08-21T15:28:03;98924.59;;;34.53;46.77
60820;BME280;46641;48.904;9.126;2023-08-21T15:32:53;98917.25;;;34.54;47.08
60820;BME280;46641;48.904;9.126;2023-08-21T15:37:43;98917.25;;;34.54;46.78
60820;BME280;46641;48.904;9.126;2023-08-21T15:42:35;98911.00;;;34.53;46.79
60820;BME280;46641;48.904;9.126;2023-08-21T15:47:25;98908.00;;;34.55;46.59
60820;BME280;46641;48.904;9.126;2023-08-21T15:52:15;98905.56;;;34.53;46.73
60820;BME280;46641;48.904;9.126;2023-08-21T15:57:06;98905.84;;;34.52;47.18
60820;BME280;46641;48.904;9.126;2023-08-21T16:01:57;98899.09;;;34.49;47.30
60820;BME280;46641;48.904;9.126;2023-08-21T16:06:48;98894.47;;;34.50;47.19
60820;BME280;46641;48.904;9.126;2023-08-21T16:11:39;98887.41;;;34.49;46.61
60820;BME280;46641;48.904;9.126;2023-08-21T16:16:29;98891.22;;;34.48;46.58
60820;BME280;46641;48.904;9.126;2023-08-21T16:21:20;98883.38;;;34.46;46.67
60820;BME280;46641;48.904;9.126;2023-08-21T16:26:10;98885.56;;;34.44;46.66
60820;BME280;46641;48.904;9.126;2023-08-21T16:31:00;98879.31;;;34.43;47.13
60820;BME280;46641;48.904;9.126;2023-08-21T16:35:51;98888.28;;;34.44;46.95
60820;BME280;46641;48.904;9.126;2023-08-21T16:40:41;98888.59;;;34.42;46.88
60820;BME280;46641;48.904;9.126;2023-08-21T16:45:31;98883.44;;;34.41;46.83
60820;BME280;46641;48.904;9.126;2023-08-21T16:50:22;98886.97;;;34.41;46.49
60820;BME280;46641;48.904;9.126;2023-08-21T16:55:12;98883.75;;;34.39;46.42
60820;BME280;46641;48.904;9.126;2023-08-21T17:00:03;98878.31;;;34.39;46.18
60820;BME280;46641;48.904;9.126;2023-08-21T17:04:59;98883.75;;;34.39;46.17
60820;BME280;46641;48.904;9.126;2023-08-21T17:09:49;98883.22;;;34.37;46.10
60820;BME280;46641;48.904;9.126;2023-08-21T17:14:40;98878.91;;;34.36;46.52
60820;BME280;46641;48.904;9.126;2023-08-21T17:19:30;98880.81;;;34.36;45.78
60820;BME280;46641;48.904;9.126;2023-08-21T17:24:20;98880.00;;;34.35;45.87
60820;BME280;46641;48.904;9.126;2023-08-21T17:29:10;98881.09;;;34.34;46.14
60820;BME280;46641;48.904;9.126;2023-08-21T17:34:01;98875.97;;;34.33;45.52
60820;BME280;46641;48.904;9.126;2023-08-21T17:38:51;98879.28;;;34.30;45.21
60820;BME280;46641;48.904;9.126;2023-08-21T17:43:41;98879.53;;;34.28;45.98
60820;BME280;46641;48.904;9.126;2023-08-21T17:48:32;98875.81;;;34.24;45.19
60820;BME280;46641;48.904;9.126;2023-08-21T17:53:22;98873.69;;;34.21;45.50
60820;BME280;46641;48.904;9.126;2023-08-21T17:58:13;98877.78;;;34.18;45.63
60820;BME280;46641;48.904;9.126;2023-08-21T18:03:03;98877.56;;;34.15;45.13
60820;BME280;46641;48.904;9.126;2023-08-21T18:07:54;98881.19;;;34.10;45.01
60820;BME280;46641;48.904;9.126;2023-08-21T18:12:44;98884.75;;;34.06;44.86
60820;BME280;46641;48.904;9.126;2023-08-21T18:17:34;98893.50;;;34.03;45.44
60820;BME280;46641;48.904;9.126;2023-08-21T18:22:25;98889.72;;;33.98;45.22
60820;BME280;46641;48.904;9.126;2023-08-21T18:27:15;98900.34;;;33.95;44.76
60820;BME280;46641;48.904;9.126;2023-08-21T18:32:06;98902.31;;;33.89;44.58
60820;BME280;46641;48.904;9.126;2023-08-21T18:36:59;98904.31;;;33.84;45.29
60820;BME280;46641;48.904;9.126;2023-08-21T18:41:50;98907.88;;;33.79;45.44
60820;BME280;46641;48.904;9.126;2023-08-21T18:46:40;98911.50;;;33.74;45.19
60820;BME280;46641;48.904;9.126;2023-08-21T18:51:31;98915.06;;;33.70;44.62
60820;BME280;46641;48.904;9.126;2023-08-21T18:56:21;98918.94;;;33.64;44.73
60820;BME280;46641;48.904;9.126;2023-08-21T19:01:11;98917.09;;;33.59;45.32
60820;BME280;46641;48.904;9.126;2023-08-21T19:06:02;98923.41;;;33.55;44.95
60820;BME280;46641;48.904;9.126;2023-08-21T19:10:52;98927.22;;;33.48;45.55
60820;BME280;46641;48.904;9.126;2023-08-21T19:15:43;98924.56;;;33.43;44.66
60820;BME280;46641;48.904;9.126;2023-08-21T19:20:33;98919.47;;;33.37;45.36
60820;BME280;46641;48.904;9.126;2023-08-21T19:25:23;98923.84;;;33.33;45.05
60820;BME280;46641;48.904;9.126;2023-08-21T19:30:14;98922.03;;;33.28;44.81
60820;BME280;46641;48.904;9.126;2023-08-21T19:35:04;98922.84;;;33.23;44.75
60820;BME280;46641;48.904;9.126;2023-08-21T19:39:55;98921.03;;;33.19;45.18
60820;BME280;46641;48.904;9.126;2023-08-21T19:44:45;98927.59;;;33.13;45.08
60820;BME280;46641;48.904;9.126;2023-08-21T19:49:35;98918.66;;;33.07;45.34
60820;BME280;46641;48.904;9.126;2023-08-21T19:54:25;98932.25;;;33.02;45.30
60820;BME280;46641;48.904;9.126;2023-08-21T19:59:16;98928.81;;;32.96;45.13
60820;BME280;46641;48.904;9.126;2023-08-21T20:04:06;98927.75;;;32.92;45.62
60820;BME280;46641;48.904;9.126;2023-08-21T20:08:57;98931.59;;;32.86;45.53
60820;BME280;46641;48.904;9.126;2023-08-21T20:13:47;98939.75;;;32.81;45.69
60820;BME280;46641;48.904;9.126;2023-08-21T20:18:38;98936.53;;;32.74;45.71
60820;BME280;46641;48.904;9.126;2023-08-21T20:23:31;98939.28;;;32.69;45.59
60820;BME280;46641;48.904;9.126;2023-08-21T20:28:22;98933.91;;;32.64;45.37
60820;BME280;46641;48.904;9.126;2023-08-21T20:33:12;98929.63;;;32.57;45.55
60820;BME280;46641;48.904;9.126;2023-08-21T20:38:02;98932.09;;;32.54;45.85
60820;BME280;46641;48.904;9.126;2023-08-21T20:42:53;98928.88;;;32.47;45.72
60820;BME280;46641;48.904;9.126;2023-08-21T20:47:43;98926.97;;;32.42;45.58
60820;BME280;46641;48.904;9.126;2023-08-21T20:52:34;98940.56;;;32.37;45.53
60820;BME280;46641;48.904;9.126;2023-08-21T20:57:24;98937.06;;;32.31;45.60
60820;BME280;46641;48.904;9.126;2023-08-21T21:02:15;98947.13;;;32.26;45.83
60820;BME280;46641;48.904;9.126;2023-08-21T21:07:06;98947.97;;;32.21;46.12
60820;BME280;46641;48.904;9.126;2023-08-21T21:11:57;98940.13;;;32.15;45.89
60820;BME280;46641;48.904;9.126;2023-08-21T21:16:48;98933.94;;;32.09;46.02
60820;BME280;46641;48.904;9.126;2023-08-21T21:21:38;98940.16;;;32.04;46.02
60820;BME280;46641;48.904;9.126;2023-08-21T21:26:29;98939.41;;;31.99;45.80
60820;BME280;46641;48.904;9.126;2023-08-21T21:31:19;98940.22;;;31.94;46.02
60820;BME280;46641;48.904;9.126;2023-08-21T21:36:09;98944.56;;;31.90;46.42
60820;BME280;46641;48.904;9.126;2023-08-21T21:40:59;98938.88;;;31.86;46.21
60820;BME280;46641;48.904;9.126;2023-08-21T21:45:54;98931.84;;;31.80;46.11
60820;BME280;46641;48.904;9.126;2023-08-21T21:50:46;98940.00;;;31.75;46.12
60820;BME280;46641;48.904;9.126;2023-08-21T21:55:36;98942.41;;;31.72;46.52
60820;BME280;46641;48.904;9.126;2023-08-21T22:00:26;98929.72;;;31.67;46.19
60820;BME280;46641;48.904;9.126;2023-08-21T22:05:17;98926.22;;;31.61;46.64
60820;BME280;46641;48.904;9.126;2023-08-21T22:10:07;98932.19;;;31.58;46.37
60820;BME280;46641;48.904;9.126;2023-08-21T22:14:58;98931.13;;;31.54;46.48
60820;BME280;46641;48.904;9.126;2023-08-21T22:19:48;98934.66;;;31.50;46.50
60820;BME280;46641;48.904;9.126;2023-08-21T22:24:38;98932.75;;;31.45;46.67
60820;BME280;46641;48.904;9.126;2023-08-21T22:29:28;98928.97;;;31.41;46.67
60820;BME280;46641;48.904;9.126;2023-08-21T22:34:19;98922.50;;;31.37;46.61
60820;BME280;46641;48.904;9.126;2023-08-21T22:39:09;98925.75;;;31.34;46.84
60820;BME280;46641;48.904;9.126;2023-08-21T22:44:00;98929.22;;;31.29;46.60
60820;BME280;46641;48.904;9.126;2023-08-21T22:48:50;98923.56;;;31.26;46.73
60820;BME280;46641;48.904;9.126;2023-08-21T22:53:40;98921.69;;;31.21;46.84
60820;BME280;46641;48.904;9.126;2023-08-21T22:58:31;98919.78;;;31.16;46.69
60820;BME280;46641;48.904;9.126;2023-08-21T23:03:21;98916.56;;;31.14;47.13
60820;BME280;46641;48.904;9.126;2023-08-21T23:08:11;98904.13;;;31.08;46.89
60820;BME280;46641;48.904;9.126;2023-08-21T23:13:01;98911.16;;;31.04;46.92
60820;BME280;46641;48.904;9.126;2023-08-21T23:17:52;98914.41;;;31.01;47.13
60820;BME280;46641;48.904;9.126;2023-08-21T23:22:42;98907.09;;;30.96;47.37
60820;BME280;46641;48.904;9.126;2023-08-21T23:27:32;98910.34;;;30.93;47.15
60820;BME280;46641;48.904;9.126;2023-08-21T23:32:23;98899.25;;;30.90;47.24
60820;BME280;46641;48.904;9.126;2023-08-21T23:37:13;98894.38;;;30.87;46.93
60820;BME280;46641;48.904;9.126;2023-08-21T23:42:04;98899.81;;;30.82;47.34
60820;BME280;46641;48.904;9.126;2023-08-21T23:46:54;98901.97;;;30.80;47.00
60820;BME280;46641;48.904;9.126;2023-08-21T23:51:44;98898.16;;;30.76;47.02
60820;BME280;46641;48.904;9.126;2023-08-21T23:56:34;98897.88;;;30.72;47.05
